Time;durP1;ratioP1;P1;durP2;ratioP2;P2;SDS_P1;SDS_P2;PMS_P1;PMS_P2;Temp;Humidity;BMP_temperature;BMP_pressure;BME280_temperature;BME280_humidity;BME280_pressure;Samples;Min_cycle;Max_cycle;Signal;HPM_P1;HPM_P2
2019/07/15 00:00:02;;;;;;;8.200001;6.849999;;;;;;;11.8;100;95113.32;;;;
2019/07/15 00:01:04;;;;;;;8.200001;6.849999;;;;;;;11.8;100;95113.32;;;;
2019/07/15 00:02:05;;;;;;;8.200001;6.849999;;;;;;;11.8;100;95113.32;;;;
2019/07/15 00:03:06;;;;;;;8.200001;6.849999;;;;;;;11.8;100;95113.32;;;;
2019/07/15 00:04:07;;;;;;;8.200001;6.849999;;;;;;;11.8;100;95113.32;;;;
2019/07/15 00:05:09;;;;;;;8.200001;6.849999;;;;;;;11.8;100;95113.32;;;;
2019/07/15 00:06:10;;;;;;;8.200001;6.849999;;;;;;;11.8;100;95113.32;;;;
2019/07/15 00:07:11;;;;;;;8.200001;6.849999;;;;;;;11.8;100;95113.32;;;;
2019/07/15 00:08:12;;;;;;;8.950001;7.699999;;;;;;;11.87;100;95116.14;;;;
2019/07/15 00:09:13;;;;;;;8.950001;7.699999;;;;;;;11.87;100;95116.14;;;;
2019/07/15 00:10:14;;;;;;;8.950001;7.699999;;;;;;;11.87;100;95116.14;;;;
2019/07/15 00:11:16;;;;;;;8.950001;7.699999;;;;;;;11.87;100;95116.14;;;;
2019/07/15 00:12:17;;;;;;;8.950001;7.699999;;;;;;;11.87;100;95116.14;;;;
2019/07/15 00:13:18;;;;;;;8.950001;7.699999;;;;;;;11.87;100;95116.14;;;;
2019/07/15 00:14:19;;;;;;;8.950001;7.699999;;;;;;;11.87;100;95116.14;;;;
2019/07/15 00:15:20;;;;;;;8.950001;7.699999;;;;;;;11.87;100;95116.14;;;;
2019/07/15 00:16:22;;;;;;;8.950001;7.699999;;;;;;;11.87;100;95116.14;;;;
2019/07/15 00:17:23;;;;;;;8.950001;7.699999;;;;;;;11.87;100;95116.14;;;;
2019/07/15 00:18:24;;;;;;;8.75;7.849999;;;;;;;12.09;100;95102.66;;;;
2019/07/15 00:19:26;;;;;;;8.75;7.849999;;;;;;;12.09;100;95102.66;;;;
2019/07/15 00:20:27;;;;;;;8.75;7.849999;;;;;;;12.09;100;95102.66;;;;
2019/07/15 00:21:28;;;;;;;8.75;7.849999;;;;;;;12.09;100;95102.66;;;;
2019/07/15 00:22:29;;;;;;;8.75;7.849999;;;;;;;12.09;100;95102.66;;;;
2019/07/15 00:23:30;;;;;;;8.75;7.849999;;;;;;;12.09;100;95102.66;;;;
2019/07/15 00:24:31;;;;;;;8.75;7.849999;;;;;;;12.09;100;95102.66;;;;
2019/07/15 00:25:32;;;;;;;8.75;7.849999;;;;;;;12.09;100;95102.66;;;;
2019/07/15 00:26:33;;;;;;;8.75;7.849999;;;;;;;12.09;100;95102.66;;;;
2019/07/15 00:27:34;;;;;;;8.75;7.849999;;;;;;;12.09;100;95102.66;;;;
2019/07/15 00:28:35;;;;;;;8.75;7.849999;;;;;;;12.09;100;95102.66;;;;
2019/07/15 00:29:37;;;;;;;8.299999;7.5;;;;;;;12.24;100;95084.31;;;;
2019/07/15 00:30:38;;;;;;;8.299999;7.5;;;;;;;12.24;100;95084.31;;;;
2019/07/15 00:31:39;;;;;;;8.299999;7.5;;;;;;;12.24;100;95084.31;;;;
2019/07/15 00:32:40;;;;;;;8.299999;7.5;;;;;;;12.24;100;95084.31;;;;
2019/07/15 00:33:41;;;;;;;8.299999;7.5;;;;;;;12.24;100;95084.31;;;;
2019/07/15 00:34:42;;;;;;;8.299999;7.5;;;;;;;12.24;100;95084.31;;;;
2019/07/15 00:35:43;;;;;;;8.299999;7.5;;;;;;;12.24;100;95084.31;;;;
2019/07/15 00:36:44;;;;;;;8.299999;7.5;;;;;;;12.24;100;95084.31;;;;
2019/07/15 00:37:45;;;;;;;8.299999;7.5;;;;;;;12.24;100;95084.31;;;;
2019/07/15 00:38:46;;;;;;;8.299999;7.5;;;;;;;12.24;100;95084.31;;;;
2019/07/15 00:39:48;;;;;;;8.550001;7.749999;;;;;;;12.41;100;95077.91;;;;
2019/07/15 00:40:49;;;;;;;8.550001;7.749999;;;;;;;12.41;100;95077.91;;;;
2019/07/15 00:41:50;;;;;;;8.550001;7.749999;;;;;;;12.41;100;95077.91;;;;
2019/07/15 00:42:51;;;;;;;8.550001;7.749999;;;;;;;12.41;100;95077.91;;;;
2019/07/15 00:43:52;;;;;;;8.550001;7.749999;;;;;;;12.41;100;95077.91;;;;
2019/07/15 00:44:53;;;;;;;8.550001;7.749999;;;;;;;12.41;100;95077.91;;;;
2019/07/15 00:45:54;;;;;;;8.550001;7.749999;;;;;;;12.41;100;95077.91;;;;
2019/07/15 00:46:55;;;;;;;8.550001;7.749999;;;;;;;12.41;100;95077.91;;;;
2019/07/15 00:47:56;;;;;;;8.550001;7.749999;;;;;;;12.41;100;95077.91;;;;
2019/07/15 00:48:57;;;;;;;8.550001;7.749999;;;;;;;12.41;100;95077.91;;;;
2019/07/15 00:49:59;;;;;;;8.550001;7.749999;;;;;;;12.41;100;95077.91;;;;
2019/07/15 00:51:00;;;;;;;8.550001;7.75;;;;;;;12.49;100;95079.63;;;;
2019/07/15 00:52:01;;;;;;;8.550001;7.75;;;;;;;12.49;100;95079.63;;;;
2019/07/15 00:53:02;;;;;;;8.550001;7.75;;;;;;;12.49;100;95079.63;;;;
2019/07/15 00:54:04;;;;;;;8.550001;7.75;;;;;;;12.49;100;95079.63;;;;
2019/07/15 00:55:05;;;;;;;8.550001;7.75;;;;;;;12.49;100;95079.63;;;;
2019/07/15 00:56:06;;;;;;;8.550001;7.75;;;;;;;12.49;100;95079.63;;;;
2019/07/15 00:57:07;;;;;;;8.550001;7.75;;;;;;;12.49;100;95079.63;;;;
2019/07/15 00:58:09;;;;;;;8.550001;7.75;;;;;;;12.49;100;95079.63;;;;
2019/07/15 00:59:10;;;;;;;8.550001;7.75;;;;;;;12.49;100;95079.63;;;;
2019/07/15 01:00:11;;;;;;;8.550001;7.75;;;;;;;12.49;100;95079.63;;;;
2019/07/15 01:01:12;;;;;;;9.100001;8.200001;;;;;;;12.62;100;95069.89;;;;
2019/07/15 01:02:13;;;;;;;9.100001;8.200001;;;;;;;12.62;100;95069.89;;;;
2019/07/15 01:03:15;;;;;;;9.100001;8.200001;;;;;;;12.62;100;95069.89;;;;
2019/07/15 01:04:16;;;;;;;9.100001;8.200001;;;;;;;12.62;100;95069.89;;;;
2019/07/15 01:05:17;;;;;;;9.100001;8.200001;;;;;;;12.62;100;95069.89;;;;
2019/07/15 01:06:19;;;;;;;9.100001;8.200001;;;;;;;12.62;100;95069.89;;;;
2019/07/15 01:07:20;;;;;;;9.100001;8.200001;;;;;;;12.62;100;95069.89;;;;
2019/07/15 01:08:21;;;;;;;9.100001;8.200001;;;;;;;12.62;100;95069.89;;;;
2019/07/15 01:09:22;;;;;;;9.100001;8.200001;;;;;;;12.62;100;95069.89;;;;
2019/07/15 01:10:23;;;;;;;9.100001;8.200001;;;;;;;12.62;100;95069.89;;;;
2019/07/15 01:11:24;;;;;;;9.100001;8.200001;;;;;;;12.62;100;95069.89;;;;
2019/07/15 01:12:26;;;;;;;8.249998;7.55;;;;;;;12.68;100;95060.35;;;;
2019/07/15 01:13:27;;;;;;;8.249998;7.55;;;;;;;12.68;100;95060.35;;;;
2019/07/15 01:14:28;;;;;;;8.249998;7.55;;;;;;;12.68;100;95060.35;;;;
2019/07/15 01:15:29;;;;;;;8.249998;7.55;;;;;;;12.68;100;95060.35;;;;
2019/07/15 01:16:31;;;;;;;8.249998;7.55;;;;;;;12.68;100;95060.35;;;;
2019/07/15 01:17:33;;;;;;;8.249998;7.55;;;;;;;12.68;100;95060.35;;;;
2019/07/15 01:18:34;;;;;;;8.249998;7.55;;;;;;;12.68;100;95060.35;;;;
2019/07/15 01:19:35;;;;;;;8.249998;7.55;;;;;;;12.68;100;95060.35;;;;
2019/07/15 01:20:37;;;;;;;8.249998;7.55;;;;;;;12.68;100;95060.35;;;;
2019/07/15 01:21:40;;;;;;;8.249998;7.55;;;;;;;12.68;100;95060.35;;;;
2019/07/15 01:22:42;;;;;;;9.4;8.049999;;;;;;;12.8;100;95068.61;;;;
2019/07/15 01:23:45;;;;;;;9.4;8.049999;;;;;;;12.8;100;95068.61;;;;
2019/07/15 01:24:51;;;;;;;9.4;8.049999;;;;;;;12.8;100;95068.61;;;;
2019/07/15 01:26:01;;;;;;;9.4;8.049999;;;;;;;12.8;100;95068.61;;;;
2019/07/15 01:27:07;;;;;;;9.4;8.049999;;;;;;;12.8;100;95068.61;;;;
2019/07/15 01:28:09;;;;;;;9.4;8.049999;;;;;;;12.8;100;95068.61;;;;
2019/07/15 01:29:12;;;;;;;9.4;8.049999;;;;;;;12.8;100;95068.61;;;;
2019/07/15 01:30:15;;;;;;;9.4;8.049999;;;;;;;12.8;100;95068.61;;;;
2019/07/15 01:31:30;;;;;;;9.4;8.049999;;;;;;;12.8;100;95068.61;;;;
2019/07/15 01:32:31;;;;;;;9.4;8.049999;;;;;;;12.8;100;95068.61;;;;
2019/07/15 01:33:33;;;;;;;7.35;6.65;;;;;;;12.88;100;95076.26;;;;
2019/07/15 01:34:34;;;;;;;7.35;6.65;;;;;;;12.88;100;95076.26;;;;
2019/07/15 01:35:35;;;;;;;7.35;6.65;;;;;;;12.88;100;95076.26;;;;
2019/07/15 01:36:36;;;;;;;7.35;6.65;;;;;;;12.88;100;95076.26;;;;
2019/07/15 01:37:37;;;;;;;7.35;6.65;;;;;;;12.88;100;95076.26;;;;
2019/07/15 01:38:38;;;;;;;7.35;6.65;;;;;;;12.88;100;95076.26;;;;
2019/07/15 01:39:39;;;;;;;7.35;6.65;;;;;;;12.88;100;95076.26;;;;
2019/07/15 01:40:41;;;;;;;7.35;6.65;;;;;;;12.88;100;95076.26;;;;
2019/07/15 01:41:42;;;;;;;7.35;6.65;;;;;;;12.88;100;95076.26;;;;
2019/07/15 01:42:43;;;;;;;7.35;6.65;;;;;;;12.88;100;95076.26;;;;
2019/07/15 01:43:45;;;;;;;7.25;6.599999;;;;;;;13.05;100;95071.61;;;;
2019/07/15 01:44:46;;;;;;;7.25;6.599999;;;;;;;13.05;100;95071.61;;;;
2019/07/15 01:45:47;;;;;;;7.25;6.599999;;;;;;;13.05;100;95071.61;;;;
2019/07/15 01:46:48;;;;;;;7.25;6.599999;;;;;;;13.05;100;95071.61;;;;
2019/07/15 01:47:49;;;;;;;7.25;6.599999;;;;;;;13.05;100;95071.61;;;;
2019/07/15 01:48:51;;;;;;;7.25;6.599999;;;;;;;13.05;100;95071.61;;;;
2019/07/15 01:49:52;;;;;;;7.25;6.599999;;;;;;;13.05;100;95071.61;;;;
2019/07/15 01:50:53;;;;;;;7.25;6.599999;;;;;;;13.05;100;95071.61;;;;
2019/07/15 01:51:54;;;;;;;7.25;6.599999;;;;;;;13.05;100;95071.61;;;;
2019/07/15 01:52:55;;;;;;;7.25;6.599999;;;;;;;13.05;100;95071.61;;;;
2019/07/15 01:53:56;;;;;;;8.4;7.1;;;;;;;13.13;100;95084.3;;;;
2019/07/15 01:54:58;;;;;;;8.4;7.1;;;;;;;13.13;100;95084.3;;;;
2019/07/15 01:55:59;;;;;;;8.4;7.1;;;;;;;13.13;100;95084.3;;;;
2019/07/15 01:57:00;;;;;;;8.4;7.1;;;;;;;13.13;100;95084.3;;;;
2019/07/15 01:58:01;;;;;;;8.4;7.1;;;;;;;13.13;100;95084.3;;;;
2019/07/15 01:59:02;;;;;;;8.4;7.1;;;;;;;13.13;100;95084.3;;;;
2019/07/15 02:00:04;;;;;;;8.4;7.1;;;;;;;13.13;100;95084.3;;;;
2019/07/15 02:01:05;;;;;;;8.4;7.1;;;;;;;13.13;100;95084.3;;;;
2019/07/15 02:02:06;;;;;;;8.4;7.1;;;;;;;13.13;100;95084.3;;;;
2019/07/15 02:03:08;;;;;;;8.4;7.1;;;;;;;13.13;100;95084.3;;;;
2019/07/15 02:04:09;;;;;;;8.4;7.1;;;;;;;13.13;100;95084.3;;;;
2019/07/15 02:05:10;;;;;;;9.700001;8.05;;;;;;;13.28;100;95079.96;;;;
2019/07/15 02:06:11;;;;;;;9.700001;8.05;;;;;;;13.28;100;95079.96;;;;
2019/07/15 02:07:13;;;;;;;9.700001;8.05;;;;;;;13.28;100;95079.96;;;;
2019/07/15 02:08:14;;;;;;;9.700001;8.05;;;;;;;13.28;100;95079.96;;;;
2019/07/15 02:09:15;;;;;;;9.700001;8.05;;;;;;;13.28;100;95079.96;;;;
2019/07/15 02:10:16;;;;;;;9.700001;8.05;;;;;;;13.28;100;95079.96;;;;
2019/07/15 02:11:18;;;;;;;9.700001;8.05;;;;;;;13.28;100;95079.96;;;;
2019/07/15 02:12:19;;;;;;;9.700001;8.05;;;;;;;13.28;100;95079.96;;;;
2019/07/15 02:13:20;;;;;;;9.700001;8.05;;;;;;;13.28;100;95079.96;;;;
2019/07/15 02:14:21;;;;;;;9.700001;8.05;;;;;;;13.28;100;95079.96;;;;
2019/07/15 02:15:22;;;;;;;9.199999;8.299998;;;;;;;13.35;100;95050.19;;;;
2019/07/15 02:16:24;;;;;;;9.199999;8.299998;;;;;;;13.35;100;95050.19;;;;
2019/07/15 02:17:25;;;;;;;9.199999;8.299998;;;;;;;13.35;100;95050.19;;;;
2019/07/15 02:18:26;;;;;;;9.199999;8.299998;;;;;;;13.35;100;95050.19;;;;
2019/07/15 02:19:27;;;;;;;9.199999;8.299998;;;;;;;13.35;100;95050.19;;;;
2019/07/15 02:20:28;;;;;;;9.199999;8.299998;;;;;;;13.35;100;95050.19;;;;
2019/07/15 02:21:30;;;;;;;9.199999;8.299998;;;;;;;13.35;100;95050.19;;;;
2019/07/15 02:22:31;;;;;;;9.199999;8.299998;;;;;;;13.35;100;95050.19;;;;
2019/07/15 02:23:32;;;;;;;9.199999;8.299998;;;;;;;13.35;100;95050.19;;;;
2019/07/15 02:24:34;;;;;;;9.199999;8.299998;;;;;;;13.35;100;95050.19;;;;
2019/07/15 02:25:35;;;;;;;9.199999;8.299998;;;;;;;13.35;100;95050.19;;;;
2019/07/15 02:26:36;;;;;;;10.55;9.550001;;;;;;;13.4;100;95058.92;;;;
2019/07/15 02:27:38;;;;;;;10.55;9.550001;;;;;;;13.4;100;95058.92;;;;
2019/07/15 02:28:39;;;;;;;10.55;9.550001;;;;;;;13.4;100;95058.92;;;;
2019/07/15 02:29:40;;;;;;;10.55;9.550001;;;;;;;13.4;100;95058.92;;;;
2019/07/15 02:30:41;;;;;;;10.55;9.550001;;;;;;;13.4;100;95058.92;;;;
2019/07/15 02:31:43;;;;;;;10.55;9.550001;;;;;;;13.4;100;95058.92;;;;
2019/07/15 02:32:44;;;;;;;10.55;9.550001;;;;;;;13.4;100;95058.92;;;;
2019/07/15 02:33:45;;;;;;;10.55;9.550001;;;;;;;13.4;100;95058.92;;;;
2019/07/15 02:34:46;;;;;;;10.55;9.550001;;;;;;;13.4;100;95058.92;;;;
2019/07/15 02:35:47;;;;;;;10.55;9.550001;;;;;;;13.4;100;95058.92;;;;
2019/07/15 02:36:49;;;;;;;10.45;9.35;;;;;;;13.32;100;95064.28;;;;
2019/07/15 02:37:50;;;;;;;10.45;9.35;;;;;;;13.32;100;95064.28;;;;
2019/07/15 02:38:51;;;;;;;10.45;9.35;;;;;;;13.32;100;95064.28;;;;
2019/07/15 02:39:52;;;;;;;10.45;9.35;;;;;;;13.32;100;95064.28;;;;
2019/07/15 02:40:53;;;;;;;10.45;9.35;;;;;;;13.32;100;95064.28;;;;
2019/07/15 02:41:54;;;;;;;10.45;9.35;;;;;;;13.32;100;95064.28;;;;
2019/07/15 02:42:55;;;;;;;10.45;9.35;;;;;;;13.32;100;95064.28;;;;
2019/07/15 02:43:57;;;;;;;10.45;9.35;;;;;;;13.32;100;95064.28;;;;
2019/07/15 02:44:58;;;;;;;10.45;9.35;;;;;;;13.32;100;95064.28;;;;
2019/07/15 02:45:59;;;;;;;10.45;9.35;;;;;;;13.32;100;95064.28;;;;
2019/07/15 02:47:00;;;;;;;34.2;25.25;;;;;;;13.26;100;95093.77;;;;
2019/07/15 02:48:01;;;;;;;34.2;25.25;;;;;;;13.26;100;95093.77;;;;
2019/07/15 02:49:03;;;;;;;34.2;25.25;;;;;;;13.26;100;95093.77;;;;
2019/07/15 02:50:04;;;;;;;34.2;25.25;;;;;;;13.26;100;95093.77;;;;
2019/07/15 02:51:07;;;;;;;34.2;25.25;;;;;;;13.26;100;95093.77;;;;
2019/07/15 02:52:08;;;;;;;34.2;25.25;;;;;;;13.26;100;95093.77;;;;
2019/07/15 02:53:09;;;;;;;34.2;25.25;;;;;;;13.26;100;95093.77;;;;
2019/07/15 02:54:10;;;;;;;34.2;25.25;;;;;;;13.26;100;95093.77;;;;
2019/07/15 02:55:11;;;;;;;34.2;25.25;;;;;;;13.26;100;95093.77;;;;
2019/07/15 02:56:13;;;;;;;34.2;25.25;;;;;;;13.26;100;95093.77;;;;
2019/07/15 02:57:14;;;;;;;34.2;25.25;;;;;;;13.26;100;95093.77;;;;
2019/07/15 02:58:16;;;;;;;45.25;31.3;;;;;;;13.28;100;95099.76;;;;
2019/07/15 02:59:17;;;;;;;45.25;31.3;;;;;;;13.28;100;95099.76;;;;
2019/07/15 03:00:18;;;;;;;45.25;31.3;;;;;;;13.28;100;95099.76;;;;
2019/07/15 03:01:34;;;;;;;45.25;31.3;;;;;;;13.28;100;95099.76;;;;
2019/07/15 03:02:35;;;;;;;45.25;31.3;;;;;;;13.28;100;95099.76;;;;
2019/07/15 03:03:36;;;;;;;45.25;31.3;;;;;;;13.28;100;95099.76;;;;
2019/07/15 03:04:37;;;;;;;45.25;31.3;;;;;;;13.28;100;95099.76;;;;
2019/07/15 03:05:38;;;;;;;45.25;31.3;;;;;;;13.28;100;95099.76;;;;
2019/07/15 03:06:40;;;;;;;45.25;31.3;;;;;;;13.28;100;95099.76;;;;
2019/07/15 03:07:41;;;;;;;45.25;31.3;;;;;;;13.28;100;95099.76;;;;
2019/07/15 03:08:42;;;;;;;42.8;29.5;;;;;;;13.48;100;95111.74;;;;
2019/07/15 03:09:43;;;;;;;42.8;29.5;;;;;;;13.48;100;95111.74;;;;
2019/07/15 03:10:44;;;;;;;42.8;29.5;;;;;;;13.48;100;95111.74;;;;
2019/07/15 03:11:45;;;;;;;42.8;29.5;;;;;;;13.48;100;95111.74;;;;
2019/07/15 03:12:47;;;;;;;42.8;29.5;;;;;;;13.48;100;95111.74;;;;
2019/07/15 03:13:48;;;;;;;42.8;29.5;;;;;;;13.48;100;95111.74;;;;
2019/07/15 03:14:49;;;;;;;42.8;29.5;;;;;;;13.48;100;95111.74;;;;
2019/07/15 03:15:50;;;;;;;42.8;29.5;;;;;;;13.48;100;95111.74;;;;
2019/07/15 03:16:51;;;;;;;42.8;29.5;;;;;;;13.48;100;95111.74;;;;
2019/07/15 03:17:52;;;;;;;42.8;29.5;;;;;;;13.48;100;95111.74;;;;
2019/07/15 03:18:53;;;;;;;48.35;30.6;;;;;;;13.55;100;95093.35;;;;
2019/07/15 03:19:54;;;;;;;48.35;30.6;;;;;;;13.55;100;95093.35;;;;
2019/07/15 03:20:55;;;;;;;48.35;30.6;;;;;;;13.55;100;95093.35;;;;
2019/07/15 03:21:56;;;;;;;48.35;30.6;;;;;;;13.55;100;95093.35;;;;
2019/07/15 03:22:57;;;;;;;48.35;30.6;;;;;;;13.55;100;95093.35;;;;
2019/07/15 03:23:59;;;;;;;48.35;30.6;;;;;;;13.55;100;95093.35;;;;
2019/07/15 03:25:00;;;;;;;48.35;30.6;;;;;;;13.55;100;95093.35;;;;
2019/07/15 03:26:01;;;;;;;48.35;30.6;;;;;;;13.55;100;95093.35;;;;
2019/07/15 03:27:02;;;;;;;48.35;30.6;;;;;;;13.55;100;95093.35;;;;
2019/07/15 03:28:03;;;;;;;48.35;30.6;;;;;;;13.55;100;95093.35;;;;
2019/07/15 03:29:04;;;;;;;48.35;30.6;;;;;;;13.55;100;95093.35;;;;
2019/07/15 03:30:06;;;;;;;41.4;29.6;;;;;;;13.68;100;95094.81;;;;
2019/07/15 03:31:08;;;;;;;41.4;29.6;;;;;;;13.68;100;95094.81;;;;
2019/07/15 03:32:09;;;;;;;41.4;29.6;;;;;;;13.68;100;95094.81;;;;
2019/07/15 03:33:10;;;;;;;41.4;29.6;;;;;;;13.68;100;95094.81;;;;
2019/07/15 03:34:11;;;;;;;41.4;29.6;;;;;;;13.68;100;95094.81;;;;
2019/07/15 03:35:12;;;;;;;41.4;29.6;;;;;;;13.68;100;95094.81;;;;
2019/07/15 03:36:13;;;;;;;41.4;29.6;;;;;;;13.68;100;95094.81;;;;
2019/07/15 03:37:14;;;;;;;41.4;29.6;;;;;;;13.68;100;95094.81;;;;
2019/07/15 03:38:15;;;;;;;41.4;29.6;;;;;;;13.68;100;95094.81;;;;
2019/07/15 03:39:17;;;;;;;41.4;29.6;;;;;;;13.68;100;95094.81;;;;
2019/07/15 03:40:18;;;;;;;37.05;27.25;;;;;;;13.76;100;95096.64;;;;
2019/07/15 03:41:19;;;;;;;37.05;27.25;;;;;;;13.76;100;95096.64;;;;
2019/07/15 03:42:20;;;;;;;37.05;27.25;;;;;;;13.76;100;95096.64;;;;
2019/07/15 03:43:21;;;;;;;37.05;27.25;;;;;;;13.76;100;95096.64;;;;
2019/07/15 03:44:22;;;;;;;37.05;27.25;;;;;;;13.76;100;95096.64;;;;
2019/07/15 03:45:23;;;;;;;37.05;27.25;;;;;;;13.76;100;95096.64;;;;
2019/07/15 03:46:25;;;;;;;37.05;27.25;;;;;;;13.76;100;95096.64;;;;
2019/07/15 03:47:26;;;;;;;37.05;27.25;;;;;;;13.76;100;95096.64;;;;
2019/07/15 03:48:27;;;;;;;37.05;27.25;;;;;;;13.76;100;95096.64;;;;
2019/07/15 03:49:28;;;;;;;37.05;27.25;;;;;;;13.76;100;95096.64;;;;
2019/07/15 03:50:29;;;;;;;35.75;25.75;;;;;;;13.88;100;95095.37;;;;
2019/07/15 03:51:30;;;;;;;35.75;25.75;;;;;;;13.88;100;95095.37;;;;
2019/07/15 03:52:31;;;;;;;35.75;25.75;;;;;;;13.88;100;95095.37;;;;
2019/07/15 03:53:32;;;;;;;35.75;25.75;;;;;;;13.88;100;95095.37;;;;
2019/07/15 03:54:33;;;;;;;35.75;25.75;;;;;;;13.88;100;95095.37;;;;
2019/07/15 03:55:34;;;;;;;35.75;25.75;;;;;;;13.88;100;95095.37;;;;
2019/07/15 03:56:36;;;;;;;35.75;25.75;;;;;;;13.88;100;95095.37;;;;
2019/07/15 03:57:37;;;;;;;35.75;25.75;;;;;;;13.88;100;95095.37;;;;
2019/07/15 03:58:38;;;;;;;35.75;25.75;;;;;;;13.88;100;95095.37;;;;
2019/07/15 03:59:39;;;;;;;35.75;25.75;;;;;;;13.88;100;95095.37;;;;
2019/07/15 04:00:40;;;;;;;35.75;25.75;;;;;;;13.88;100;95095.37;;;;
2019/07/15 04:01:57;;;;;;;35.3;24.6;;;;;;;13.94;100;95085.79;;;;
2019/07/15 04:02:58;;;;;;;35.3;24.6;;;;;;;13.94;100;95085.79;;;;
2019/07/15 04:03:59;;;;;;;35.3;24.6;;;;;;;13.94;100;95085.79;;;;
2019/07/15 04:05:00;;;;;;;35.3;24.6;;;;;;;13.94;100;95085.79;;;;
2019/07/15 04:06:02;;;;;;;35.3;24.6;;;;;;;13.94;100;95085.79;;;;
2019/07/15 04:07:03;;;;;;;35.3;24.6;;;;;;;13.94;100;95085.79;;;;
2019/07/15 04:08:04;;;;;;;35.3;24.6;;;;;;;13.94;100;95085.79;;;;
2019/07/15 04:09:05;;;;;;;35.3;24.6;;;;;;;13.94;100;95085.79;;;;
2019/07/15 04:10:06;;;;;;;35.3;24.6;;;;;;;13.94;100;95085.79;;;;
2019/07/15 04:11:08;;;;;;;35.3;24.6;;;;;;;13.94;100;95085.79;;;;
2019/07/15 04:12:09;;;;;;;35.75;24.75;;;;;;;14.06;100;95093.6;;;;
2019/07/15 04:13:10;;;;;;;35.75;24.75;;;;;;;14.06;100;95093.6;;;;
2019/07/15 04:14:11;;;;;;;35.75;24.75;;;;;;;14.06;100;95093.6;;;;
2019/07/15 04:15:12;;;;;;;35.75;24.75;;;;;;;14.06;100;95093.6;;;;
2019/07/15 04:16:18;;;;;;;35.75;24.75;;;;;;;14.06;100;95093.6;;;;
2019/07/15 04:17:19;;;;;;;35.75;24.75;;;;;;;14.06;100;95093.6;;;;
2019/07/15 04:18:20;;;;;;;35.75;24.75;;;;;;;14.06;100;95093.6;;;;
2019/07/15 04:19:21;;;;;;;35.75;24.75;;;;;;;14.06;100;95093.6;;;;
2019/07/15 04:20:22;;;;;;;35.75;24.75;;;;;;;14.06;100;95093.6;;;;
2019/07/15 04:21:23;;;;;;;35.75;24.75;;;;;;;14.06;100;95093.6;;;;
2019/07/15 04:22:24;;;;;;;29.95;21.7;;;;;;;14.11;100;95080.05;;;;
2019/07/15 04:23:26;;;;;;;29.95;21.7;;;;;;;14.11;100;95080.05;;;;
2019/07/15 04:24:27;;;;;;;29.95;21.7;;;;;;;14.11;100;95080.05;;;;
2019/07/15 04:25:28;;;;;;;29.95;21.7;;;;;;;14.11;100;95080.05;;;;
2019/07/15 04:26:29;;;;;;;29.95;21.7;;;;;;;14.11;100;95080.05;;;;
2019/07/15 04:27:30;;;;;;;29.95;21.7;;;;;;;14.11;100;95080.05;;;;
2019/07/15 04:28:31;;;;;;;29.95;21.7;;;;;;;14.11;100;95080.05;;;;
2019/07/15 04:29:32;;;;;;;29.95;21.7;;;;;;;14.11;100;95080.05;;;;
2019/07/15 04:30:33;;;;;;;29.95;21.7;;;;;;;14.11;100;95080.05;;;;
2019/07/15 04:31:34;;;;;;;29.95;21.7;;;;;;;14.11;100;95080.05;;;;
2019/07/15 04:32:36;;;;;;;29.95;21.7;;;;;;;14.11;100;95080.05;;;;
2019/07/15 04:33:37;;;;;;;27.75;19.95;;;;;;;14.21;100;95063.79;;;;
2019/07/15 04:34:38;;;;;;;27.75;19.95;;;;;;;14.21;100;95063.79;;;;
2019/07/15 04:35:39;;;;;;;27.75;19.95;;;;;;;14.21;100;95063.79;;;;
2019/07/15 04:36:40;;;;;;;27.75;19.95;;;;;;;14.21;100;95063.79;;;;
2019/07/15 04:37:41;;;;;;;27.75;19.95;;;;;;;14.21;100;95063.79;;;;
2019/07/15 04:38:42;;;;;;;27.75;19.95;;;;;;;14.21;100;95063.79;;;;
2019/07/15 04:39:43;;;;;;;27.75;19.95;;;;;;;14.21;100;95063.79;;;;
2019/07/15 04:40:44;;;;;;;27.75;19.95;;;;;;;14.21;100;95063.79;;;;
2019/07/15 04:41:45;;;;;;;27.75;19.95;;;;;;;14.21;100;95063.79;;;;
2019/07/15 04:42:47;;;;;;;27.75;19.95;;;;;;;14.21;100;95063.79;;;;
2019/07/15 04:43:48;;;;;;;30;20.3;;;;;;;14.29;100;95056.68;;;;
2019/07/15 04:44:49;;;;;;;30;20.3;;;;;;;14.29;100;95056.68;;;;
2019/07/15 04:45:50;;;;;;;30;20.3;;;;;;;14.29;100;95056.68;;;;
2019/07/15 04:46:51;;;;;;;30;20.3;;;;;;;14.29;100;95056.68;;;;
2019/07/15 04:47:52;;;;;;;30;20.3;;;;;;;14.29;100;95056.68;;;;
2019/07/15 04:48:53;;;;;;;30;20.3;;;;;;;14.29;100;95056.68;;;;
2019/07/15 04:49:54;;;;;;;30;20.3;;;;;;;14.29;100;95056.68;;;;
2019/07/15 04:50:55;;;;;;;30;20.3;;;;;;;14.29;100;95056.68;;;;
2019/07/15 04:51:56;;;;;;;30;20.3;;;;;;;14.29;100;95056.68;;;;
2019/07/15 04:52:57;;;;;;;30;20.3;;;;;;;14.29;100;95056.68;;;;
2019/07/15 04:53:59;;;;;;;30;20.3;;;;;;;14.29;100;95056.68;;;;
2019/07/15 04:55:00;;;;;;;23.9;18.4;;;;;;;14.41;100;95061.76;;;;
2019/07/15 04:56:01;;;;;;;23.9;18.4;;;;;;;14.41;100;95061.76;;;;
2019/07/15 04:57:02;;;;;;;23.9;18.4;;;;;;;14.41;100;95061.76;;;;
2019/07/15 04:58:03;;;;;;;23.9;18.4;;;;;;;14.41;100;95061.76;;;;
2019/07/15 04:59:04;;;;;;;23.9;18.4;;;;;;;14.41;100;95061.76;;;;
2019/07/15 05:00:05;;;;;;;23.9;18.4;;;;;;;14.41;100;95061.76;;;;
2019/07/15 05:01:07;;;;;;;23.9;18.4;;;;;;;14.41;100;95061.76;;;;
2019/07/15 05:02:08;;;;;;;23.9;18.4;;;;;;;14.41;100;95061.76;;;;
2019/07/15 05:03:09;;;;;;;23.9;18.4;;;;;;;14.41;100;95061.76;;;;
2019/07/15 05:04:10;;;;;;;23.9;18.4;;;;;;;14.41;100;95061.76;;;;
2019/07/15 05:05:12;;;;;;;18.5;14.9;;;;;;;14.65;100;95061.19;;;;
2019/07/15 05:06:13;;;;;;;18.5;14.9;;;;;;;14.65;100;95061.19;;;;
2019/07/15 05:07:14;;;;;;;18.5;14.9;;;;;;;14.65;100;95061.19;;;;
2019/07/15 05:08:15;;;;;;;18.5;14.9;;;;;;;14.65;100;95061.19;;;;
2019/07/15 05:09:16;;;;;;;18.5;14.9;;;;;;;14.65;100;95061.19;;;;
2019/07/15 05:10:18;;;;;;;18.5;14.9;;;;;;;14.65;100;95061.19;;;;
2019/07/15 05:11:19;;;;;;;18.5;14.9;;;;;;;14.65;100;95061.19;;;;
2019/07/15 05:12:20;;;;;;;18.5;14.9;;;;;;;14.65;100;95061.19;;;;
2019/07/15 05:13:21;;;;;;;18.5;14.9;;;;;;;14.65;100;95061.19;;;;
2019/07/15 05:14:22;;;;;;;18.5;14.9;;;;;;;14.65;100;95061.19;;;;
2019/07/15 05:15:23;;;;;;;14.6;13;;;;;;;14.86;100;95071.44;;;;
2019/07/15 05:16:24;;;;;;;14.6;13;;;;;;;14.86;100;95071.44;;;;
2019/07/15 05:17:25;;;;;;;14.6;13;;;;;;;14.86;100;95071.44;;;;
2019/07/15 05:18:27;;;;;;;14.6;13;;;;;;;14.86;100;95071.44;;;;
2019/07/15 05:19:28;;;;;;;14.6;13;;;;;;;14.86;100;95071.44;;;;
2019/07/15 05:20:29;;;;;;;14.6;13;;;;;;;14.86;100;95071.44;;;;
2019/07/15 05:21:30;;;;;;;14.6;13;;;;;;;14.86;100;95071.44;;;;
2019/07/15 05:22:31;;;;;;;14.6;13;;;;;;;14.86;100;95071.44;;;;
2019/07/15 05:23:32;;;;;;;14.6;13;;;;;;;14.86;100;95071.44;;;;
2019/07/15 05:24:33;;;;;;;14.6;13;;;;;;;14.86;100;95071.44;;;;
2019/07/15 05:25:34;;;;;;;14.6;13;;;;;;;14.86;100;95071.44;;;;
2019/07/15 05:26:35;;;;;;;14.25;12.85;;;;;;;14.72;100;95075.34;;;;
2019/07/15 05:27:36;;;;;;;14.25;12.85;;;;;;;14.72;100;95075.34;;;;
2019/07/15 05:28:38;;;;;;;14.25;12.85;;;;;;;14.72;100;95075.34;;;;
2019/07/15 05:29:39;;;;;;;14.25;12.85;;;;;;;14.72;100;95075.34;;;;
2019/07/15 05:30:40;;;;;;;14.25;12.85;;;;;;;14.72;100;95075.34;;;;
2019/07/15 05:31:41;;;;;;;14.25;12.85;;;;;;;14.72;100;95075.34;;;;
2019/07/15 05:32:42;;;;;;;14.25;12.85;;;;;;;14.72;100;95075.34;;;;
2019/07/15 05:33:43;;;;;;;14.25;12.85;;;;;;;14.72;100;95075.34;;;;
2019/07/15 05:34:45;;;;;;;14.25;12.85;;;;;;;14.72;100;95075.34;;;;
2019/07/15 05:35:46;;;;;;;14.25;12.85;;;;;;;14.72;100;95075.34;;;;
2019/07/15 05:36:47;;;;;;;15.55;13.3;;;;;;;14.91;100;95100.03;;;;
2019/07/15 05:37:48;;;;;;;15.55;13.3;;;;;;;14.91;100;95100.03;;;;
2019/07/15 05:38:49;;;;;;;15.55;13.3;;;;;;;14.91;100;95100.03;;;;
2019/07/15 05:39:50;;;;;;;15.55;13.3;;;;;;;14.91;100;95100.03;;;;
2019/07/15 05:40:52;;;;;;;15.55;13.3;;;;;;;14.91;100;95100.03;;;;
2019/07/15 05:41:53;;;;;;;15.55;13.3;;;;;;;14.91;100;95100.03;;;;
2019/07/15 05:42:54;;;;;;;15.55;13.3;;;;;;;14.91;100;95100.03;;;;
2019/07/15 05:43:55;;;;;;;15.55;13.3;;;;;;;14.91;100;95100.03;;;;
2019/07/15 05:44:56;;;;;;;15.55;13.3;;;;;;;14.91;100;95100.03;;;;
2019/07/15 05:45:57;;;;;;;15.55;13.3;;;;;;;14.91;100;95100.03;;;;
2019/07/15 05:46:58;;;;;;;15.55;13.3;;;;;;;14.91;100;95100.03;;;;
2019/07/15 05:47:59;;;;;;;16.75;15.05;;;;;;;15.37;100;95104.07;;;;
2019/07/15 05:49:00;;;;;;;16.75;15.05;;;;;;;15.37;100;95104.07;;;;
2019/07/15 05:50:01;;;;;;;16.75;15.05;;;;;;;15.37;100;95104.07;;;;
2019/07/15 05:51:03;;;;;;;16.75;15.05;;;;;;;15.37;100;95104.07;;;;
2019/07/15 05:52:04;;;;;;;16.75;15.05;;;;;;;15.37;100;95104.07;;;;
2019/07/15 05:53:05;;;;;;;16.75;15.05;;;;;;;15.37;100;95104.07;;;;
2019/07/15 05:54:06;;;;;;;16.75;15.05;;;;;;;15.37;100;95104.07;;;;
2019/07/15 05:55:07;;;;;;;16.75;15.05;;;;;;;15.37;100;95104.07;;;;
2019/07/15 05:56:09;;;;;;;16.75;15.05;;;;;;;15.37;100;95104.07;;;;
2019/07/15 05:57:11;;;;;;;16.75;15.05;;;;;;;15.37;100;95104.07;;;;
2019/07/15 05:58:12;;;;;;;15.1;13.6;;;;;;;15.9;100;95114.47;;;;
2019/07/15 05:59:13;;;;;;;15.1;13.6;;;;;;;15.9;100;95114.47;;;;
2019/07/15 06:00:14;;;;;;;15.1;13.6;;;;;;;15.9;100;95114.47;;;;